ADDS METAR Data INFO
IDs: Format: Raw Decoded Include TAF

Data at: 0211 UTC 17 Aug 2018

PAFA 170153Z 26009KT 10SM SCT045 SCT090 BKN150 14/07 A2986 RMK AO2 SLP116 T01440072
PAFA 170053Z 35007KT 10SM BKN045 BKN060 BKN085 14/07 A2986 RMK AO2 SLP118 T01440072
PAFA 162353Z 28006KT 10SM BKN045 BKN060 BKN090 14/06 A2987 RMK AO2 SLP120 T01440061 10161 20106 53002
PAFA 162253Z 26012KT 10SM SCT045 BKN065 BKN090 16/07 A2986 RMK AO2 SLP117 T01560067
PAFA 162153Z 25010G18KT 200V280 10SM SCT045 BKN065 BKN100 16/07 A2986 RMK AO2 SLP116 T01560067
PAFA 162053Z 24009KT 200V270 10SM SCT045 BKN065 BKN095 15/06 A2986 RMK AO2 SLP117 T01500061 56003
PAFA 161953Z 27010KT 10SM FEW018 BKN045 BKN100 14/07 A2986 RMK AO2 SLP118 T01440067
PAFA 161853Z 24009KT 10SM FEW008 SCT045 BKN110 14/07 A2986 RMK AO2 SLP118 T01390072
PAFA 161753Z 00000KT 10SM FEW004 SCT065 BKN100 10/08 A2987 RMK AO2 SLP120 T01000083 10100 20056 50001
PAFA 161653Z 00000KT 4SM BR SCT002 BKN065 BKN100 08/08 A2987 RMK AO2 SLP122 VIS HYR SE-S T00830078
PAFA 161614Z 00000KT 3SM BR BKN002 BKN065 07/07 A2987 RMK AO2 TWR VIS 4 VIS HYR SE-S T00670067
PAFA 161553Z 00000KT 3/4SM R02L/4000VP6000FT BR BKN002 BKN065 07/07 A2987 RMK AO2 SFC VIS 1 SLP121 VIS N-NE S-W-NW 3/4 T00720067
PAFA 161545Z 00000KT 3/4SM R02L/4000VP6000FT BR BKN002 BKN065 07/07 A2987 RMK AO2 SFC VIS 2 VIS N-NE S-W-NW 3/4 T00670067
PAFA 161501Z 00000KT 2SM BR BKN003 BKN065 BKN110 06/06 A2987 RMK AO2 VIS N-NE S-W-NW 1 T00610056
PAFA 161453Z 01003KT 2SM BR BKN000 BKN065 BKN110 06/05 A2987 RMK AO2 SLP120 FG BKN000 VIS N-NE S-W-NW 1 T00610050 50001
PAFA 161447Z 00000KT 2SM BR BKN000 BKN065 BKN110 06/05 A2987 RMK AO2 TWR VIS 3 FG BKN000 VIS N-NE S-W-NW 1
PAFA 161444Z 00000KT 2 1/2SM BR SCT000 BKN065 BKN110 06/06 A2987 RMK AO2 TWR VIS 3 FG SCT000 VIS N-NE S-W-NW 1 T00610056
PAFA 161419Z 20004KT 3SM BR SCT000 BKN065 BKN110 06/06 A2987 RMK AO2 FG SCT000 VIS HYR NE-SE T00610061
PAFA 161353Z VRB03KT 2SM BR SCT000 BKN065 BKN110 06/06 A2987 RMK AO2 SLP120 FG SCT000 T00610056
PAFA 161350Z 21003KT 2SM BR SCT000 BKN065 BKN110 06/06 A2987 RMK AO2 FG SCT000
PAFA 161253Z COR 20004KT 10SM BCFG SCT000 BKN060 BKN110 06/06 A2986 RMK AO2 SLP118 FG SCT000 BCFG N-NE SW-NW T00610056
PAFA 161153Z 20005KT 10SM SCT060 BKN100 07/06 A2986 RMK AO2 SLP118 70004 T00670061 10111 20067 51002
PAFA 161053Z 20004KT 10SM SCT055 BKN060 BKN100 07/07 A2986 RMK AO2 SLP117 T00720067
PAFA 160953Z 20006KT 10SM SCT041 BKN065 BKN090 08/07 A2986 RMK AO2 SLP119 T00780072
PAFA 160853Z 20003KT 10SM SCT041 BKN060 BKN090 09/08 A2986 RMK AO2 SLP117 T00890078 401500083 53004
PAFA 160753Z 00000KT 10SM SCT033 SCT041 BKN060 09/08 A2986 RMK AO2 SLP115 T00940083
PAFA 160653Z 18003KT 10SM SCT033 BKN060 10/09 A2985 RMK AO2 SLP113 T01000094
PAFA 160553Z 00000KT 10SM FEW030 SCT060 SCT200 11/09 A2985 RMK AO2 SLP113 60000 T01110094 10150 20111 53001
PAFA 160453Z 00000KT 10SM FEW030 SCT060 BKN090 12/09 A2984 RMK AO2 SLP111 T01220089
PAFA 160353Z 24008KT 10SM FEW030 SCT045 BKN070 14/09 A2984 RMK AO2 SLP111 SH DSNT NE T01390094
PAFA 160253Z 23007G14KT 180V260 10SM SCT025 BKN040 BKN070 14/09 A2984 RMK AO2 RAB00E24 SLP111 P0000 60000 T01390094 56005
PAFA 160153Z 25007KT 10SM SCT020 BKN035 BKN075 14/09 A2984 RMK AO2 SLP111 PRSNT WX VCSH W T01440094
PAFA 160053Z 24007KT 10SM SCT020 BKN030 BKN075 14/09 A2985 RMK AO2 SLP113 T01390094
PAFA 152353Z 24005KT 10SM FEW015 BKN027 BKN035 13/11 A2986 RMK AO2 SLP116 60003 T01330106 10133 20100 58003
PAFA 152253Z 24007KT 10SM FEW010 BKN016 OVC024 12/10 A2987 RMK AO2 RAB07E17 SLP118 SH DSNT N-NE P0000 T01220100
PAFA 152238Z 23007KT 7SM FEW008 BKN016 OVC028 12/11 A2987 RMK AO2 RAB07E17 CIG LWR N-NE P0000 T01220111
PAFA 152153Z 22005KT 7SM FEW008 BKN014 OVC028 12/11 A2987 RMK AO2 DZE52 SLP120 CIG LWR N-NE P0002 T01170106
PAFA 152053Z 22005KT 3SM R02L/6000VP6000FT -DZ BR FEW006 BKN013 OVC017 11/11 A2987 RMK AO2 SLP119 CIG LWR NW-NE P0001 60001 T01110106 52003
PAFA 151953Z 23004KT 4SM -DZ BR FEW005 BKN009 OVC017 11/10 A2987 RMK AO2 DZB51 SLP119 CIG LWR NW-NE P0000 T01060100
PAFA 151853Z 22007KT 190V250 3SM BR FEW005 BKN009 OVC015 10/09 A2986 RMK AO2 SLP117 CIG LWR N T01000094
PAFA 151831Z 21007KT 4SM BR FEW005 BKN009 OVC015 10/09 A2986 RMK AO2 CIG LWR N T01000094
PAFA 151753Z 22004KT 4SM BR FEW005 SCT009 OVC015 10/09 A2986 RMK AO2 RAB01E51 SLP117 CIG LWR N P0001 60001 T01000094 10100 20094 51009
PAFA 151653Z 21004KT 5SM BR FEW005 SCT009 OVC015 09/09 A2985 RMK AO2 RAB46E52 SLP114 CIG LWR N P0000 T00940094
PAFA 151611Z 23005KT 5SM BR FEW005 BKN013 OVC048 09/09 A2984 RMK AO2 T00940089
PAFA 151553Z 22005KT 6SM BR FEW005 SCT015 OVC048 09/09 A2984 RMK AO2 RAE21 SLP110 P0000 T00940089
PAFA 151523Z 22004KT 10SM SCT012 BKN016 OVC055 09/09 A2984 RMK AO2 RAE21 P0000 T00940089
PAFA 151453Z 22004KT 10SM -RA FEW009 BKN047 OVC055 09/09 A2983 RMK AO2 RAB42 SLP107 PCPN VRY LGT P0000 60000 T00940089 51007
PAFA 151445Z VRB05KT 7SM -RA FEW009 BKN047 OVC060 09/09 A2983 RMK AO2 RAB42 PCPN VRY LGT P0000 T00940089